<?xml version="1.0" encoding="UTF-8" standalone="no" ?>
<gpx xmlns="http://www.topografix.com/GPX/1/1" xmlns:xsi="http://www.w3.org/2001/XMLSchema-instance" xsi:schemaLocation="http://www.topografix.com/GPX/1/1 http://www.topografix.com/GPX/1/1/gpx.xsd" version="1.1" creator="VisuGPX - https://www.visugpx.com">
  <metadata>
    <name>Marche dans la plaine</name>
    <desc><![CDATA[Marche dans la plaine pour un entrainement futur]]></desc>
  </metadata>
  <trk>
    <name><![CDATA[ONmove 100 - 01/11/2014]]></name>
    <trkseg>
      <trkpt lat="45.79724" lon="3.10712">
        <ele>341.1</ele>
        <time>2014-11-01T06:37:59Z</time>
      </trkpt>
      <trkpt lat="45.79817" lon="3.10731">
        <ele>343.5</ele>
        <time>2014-11-01T06:39:14Z</time>
      </trkpt>
      <trkpt lat="45.79861" lon="3.10847">
        <ele>340</ele>
        <time>2014-11-01T06:40:34Z</time>
      </trkpt>
      <trkpt lat="45.79947" lon="3.10915">
        <ele>339.1</ele>
        <time>2014-11-01T06:41:59Z</time>
      </trkpt>
      <trkpt lat="45.79929" lon="3.1106">
        <ele>339.5</ele>
        <time>2014-11-01T06:43:24Z</time>
      </trkpt>
      <trkpt lat="45.79996" lon="3.11132">
        <ele>339</ele>
        <time>2014-11-01T06:44:30Z</time>
      </trkpt>
      <trkpt lat="45.80041" lon="3.11225">
        <ele>339</ele>
        <time>2014-11-01T06:45:49Z</time>
      </trkpt>
      <trkpt lat="45.8008" lon="3.1133">
        <ele>338</ele>
        <time>2014-11-01T06:46:54Z</time>
      </trkpt>
      <trkpt lat="45.80139" lon="3.11408">
        <ele>338</ele>
        <time>2014-11-01T06:47:55Z</time>
      </trkpt>
      <trkpt lat="45.80189" lon="3.11497">
        <ele>337</ele>
        <time>2014-11-01T06:48:54Z</time>
      </trkpt>
      <trkpt lat="45.8024" lon="3.11584">
        <ele>337</ele>
        <time>2014-11-01T06:49:54Z</time>
      </trkpt>
      <trkpt lat="45.80292" lon="3.11673">
        <ele>336.9</ele>
        <time>2014-11-01T06:50:50Z</time>
      </trkpt>
      <trkpt lat="45.80334" lon="3.11776">
        <ele>336</ele>
        <time>2014-11-01T06:51:54Z</time>
      </trkpt>
      <trkpt lat="45.80356" lon="3.11887">
        <ele>336</ele>
        <time>2014-11-01T06:52:54Z</time>
      </trkpt>
      <trkpt lat="45.80401" lon="3.11988">
        <ele>335</ele>
        <time>2014-11-01T06:54:00Z</time>
      </trkpt>
      <trkpt lat="45.8043" lon="3.12098">
        <ele>335</ele>
        <time>2014-11-01T06:55:05Z</time>
      </trkpt>
      <trkpt lat="45.8046" lon="3.12203">
        <ele>334.4</ele>
        <time>2014-11-01T06:56:04Z</time>
      </trkpt>
      <trkpt lat="45.80492" lon="3.12314">
        <ele>334.3</ele>
        <time>2014-11-01T06:57:07Z</time>
      </trkpt>
      <trkpt lat="45.80523" lon="3.12427">
        <ele>334.2</ele>
        <time>2014-11-01T06:58:11Z</time>
      </trkpt>
      <trkpt lat="45.80551" lon="3.12542">
        <ele>334.1</ele>
        <time>2014-11-01T06:59:14Z</time>
      </trkpt>
      <trkpt lat="45.80568" lon="3.12669">
        <ele>334.9</ele>
        <time>2014-11-01T07:00:19Z</time>
      </trkpt>
      <trkpt lat="45.80614" lon="3.12785">
        <ele>336.4</ele>
        <time>2014-11-01T07:01:42Z</time>
      </trkpt>
      <trkpt lat="45.80705" lon="3.12816">
        <ele>333</ele>
        <time>2014-11-01T07:02:44Z</time>
      </trkpt>
      <trkpt lat="45.80784" lon="3.12868">
        <ele>332.8</ele>
        <time>2014-11-01T07:03:55Z</time>
      </trkpt>
      <trkpt lat="45.80864" lon="3.12913">
        <ele>332.8</ele>
        <time>2014-11-01T07:05:20Z</time>
      </trkpt>
      <trkpt lat="45.80942" lon="3.12957">
        <ele>333</ele>
        <time>2014-11-01T07:06:19Z</time>
      </trkpt>
      <trkpt lat="45.81007" lon="3.13033">
        <ele>332.8</ele>
        <time>2014-11-01T07:07:22Z</time>
      </trkpt>
      <trkpt lat="45.81077" lon="3.13091">
        <ele>333.6</ele>
        <time>2014-11-01T07:08:22Z</time>
      </trkpt>
      <trkpt lat="45.8115" lon="3.13148">
        <ele>335.5</ele>
        <time>2014-11-01T07:09:24Z</time>
      </trkpt>
      <trkpt lat="45.81153" lon="3.13272">
        <ele>334.5</ele>
        <time>2014-11-01T07:10:39Z</time>
      </trkpt>
      <trkpt lat="45.81209" lon="3.13375">
        <ele>333.2</ele>
        <time>2014-11-01T07:11:47Z</time>
      </trkpt>
      <trkpt lat="45.81265" lon="3.13468">
        <ele>331.2</ele>
        <time>2014-11-01T07:12:49Z</time>
      </trkpt>
      <trkpt lat="45.81326" lon="3.13547">
        <ele>330.2</ele>
        <time>2014-11-01T07:13:49Z</time>
      </trkpt>
      <trkpt lat="45.81378" lon="3.13645">
        <ele>330.3</ele>
        <time>2014-11-01T07:14:59Z</time>
      </trkpt>
      <trkpt lat="45.81373" lon="3.13764">
        <ele>330</ele>
        <time>2014-11-01T07:15:59Z</time>
      </trkpt>
      <trkpt lat="45.81392" lon="3.1388">
        <ele>329.6</ele>
        <time>2014-11-01T07:17:00Z</time>
      </trkpt>
      <trkpt lat="45.81411" lon="3.13989">
        <ele>329.3</ele>
        <time>2014-11-01T07:17:57Z</time>
      </trkpt>
      <trkpt lat="45.81427" lon="3.14101">
        <ele>328.6</ele>
        <time>2014-11-01T07:18:56Z</time>
      </trkpt>
      <trkpt lat="45.81444" lon="3.14211">
        <ele>329</ele>
        <time>2014-11-01T07:19:51Z</time>
      </trkpt>
      <trkpt lat="45.81458" lon="3.14322">
        <ele>328.5</ele>
        <time>2014-11-01T07:20:49Z</time>
      </trkpt>
      <trkpt lat="45.81469" lon="3.14438">
        <ele>328.7</ele>
        <time>2014-11-01T07:21:54Z</time>
      </trkpt>
      <trkpt lat="45.81495" lon="3.14542">
        <ele>328.6</ele>
        <time>2014-11-01T07:22:45Z</time>
      </trkpt>
      <trkpt lat="45.81513" lon="3.14655">
        <ele>328</ele>
        <time>2014-11-01T07:23:44Z</time>
      </trkpt>
      <trkpt lat="45.81533" lon="3.14764">
        <ele>327</ele>
        <time>2014-11-01T07:24:40Z</time>
      </trkpt>
      <trkpt lat="45.81549" lon="3.14883">
        <ele>327.7</ele>
        <time>2014-11-01T07:25:41Z</time>
      </trkpt>
      <trkpt lat="45.81569" lon="3.14997">
        <ele>327</ele>
        <time>2014-11-01T07:26:39Z</time>
      </trkpt>
      <trkpt lat="45.81581" lon="3.15107">
        <ele>326.9</ele>
        <time>2014-11-01T07:27:33Z</time>
      </trkpt>
      <trkpt lat="45.8159" lon="3.15218">
        <ele>326</ele>
        <time>2014-11-01T07:28:33Z</time>
      </trkpt>
      <trkpt lat="45.81586" lon="3.15332">
        <ele>326.9</ele>
        <time>2014-11-01T07:29:35Z</time>
      </trkpt>
      <trkpt lat="45.81573" lon="3.15422">
        <ele>327.3</ele>
        <time>2014-11-01T07:30:41Z</time>
      </trkpt>
      <trkpt lat="45.8151" lon="3.15421">
        <ele>329.4</ele>
        <time>2014-11-01T07:31:26Z</time>
      </trkpt>
      <trkpt lat="45.8147" lon="3.15546">
        <ele>326.4</ele>
        <time>2014-11-01T07:32:42Z</time>
      </trkpt>
      <trkpt lat="45.81466" lon="3.15679">
        <ele>327.6</ele>
        <time>2014-11-01T07:33:50Z</time>
      </trkpt>
      <trkpt lat="45.81445" lon="3.1581">
        <ele>325</ele>
        <time>2014-11-01T07:34:52Z</time>
      </trkpt>
      <trkpt lat="45.81424" lon="3.15941">
        <ele>325.7</ele>
        <time>2014-11-01T07:35:56Z</time>
      </trkpt>
      <trkpt lat="45.81393" lon="3.16062">
        <ele>325.6</ele>
        <time>2014-11-01T07:36:59Z</time>
      </trkpt>
      <trkpt lat="45.81388" lon="3.16195">
        <ele>325</ele>
        <time>2014-11-01T07:38:04Z</time>
      </trkpt>
      <trkpt lat="45.81388" lon="3.16321">
        <ele>325</ele>
        <time>2014-11-01T07:39:05Z</time>
      </trkpt>
      <trkpt lat="45.81398" lon="3.16467">
        <ele>324.7</ele>
        <time>2014-11-01T07:40:19Z</time>
      </trkpt>
      <trkpt lat="45.81408" lon="3.16613">
        <ele>324</ele>
        <time>2014-11-01T07:41:39Z</time>
      </trkpt>
      <trkpt lat="45.81438" lon="3.16754">
        <ele>324.1</ele>
        <time>2014-11-01T07:42:54Z</time>
      </trkpt>
      <trkpt lat="45.8147" lon="3.16899">
        <ele>324</ele>
        <time>2014-11-01T07:44:19Z</time>
      </trkpt>
      <trkpt lat="45.81506" lon="3.17053">
        <ele>323.8</ele>
        <time>2014-11-01T07:45:45Z</time>
      </trkpt>
      <trkpt lat="45.81557" lon="3.17122">
        <ele>324.3</ele>
        <time>2014-11-01T07:47:04Z</time>
      </trkpt>
      <trkpt lat="45.81615" lon="3.17168">
        <ele>323</ele>
        <time>2014-11-01T07:48:09Z</time>
      </trkpt>
      <trkpt lat="45.81732" lon="3.17141">
        <ele>323</ele>
        <time>2014-11-01T07:49:44Z</time>
      </trkpt>
      <trkpt lat="45.81848" lon="3.17114">
        <ele>322.9</ele>
        <time>2014-11-01T07:51:14Z</time>
      </trkpt>
      <trkpt lat="45.81916" lon="3.17098">
        <ele>322.5</ele>
        <time>2014-11-01T07:52:04Z</time>
      </trkpt>
      <trkpt lat="45.81982" lon="3.17096">
        <ele>323</ele>
        <time>2014-11-01T07:52:59Z</time>
      </trkpt>
      <trkpt lat="45.8199" lon="3.17189">
        <ele>323</ele>
        <time>2014-11-01T07:53:49Z</time>
      </trkpt>
      <trkpt lat="45.82006" lon="3.17281">
        <ele>322.8</ele>
        <time>2014-11-01T07:54:39Z</time>
      </trkpt>
      <trkpt lat="45.82037" lon="3.1741">
        <ele>322.7</ele>
        <time>2014-11-01T07:55:50Z</time>
      </trkpt>
      <trkpt lat="45.82079" lon="3.17537">
        <ele>322.6</ele>
        <time>2014-11-01T07:57:02Z</time>
      </trkpt>
      <trkpt lat="45.82097" lon="3.17674">
        <ele>322</ele>
        <time>2014-11-01T07:58:16Z</time>
      </trkpt>
      <trkpt lat="45.82132" lon="3.17798">
        <ele>322</ele>
        <time>2014-11-01T07:59:24Z</time>
      </trkpt>
      <trkpt lat="45.82164" lon="3.17926">
        <ele>322</ele>
        <time>2014-11-01T08:00:34Z</time>
      </trkpt>
      <trkpt lat="45.82201" lon="3.18052">
        <ele>321.8</ele>
        <time>2014-11-01T08:01:44Z</time>
      </trkpt>
      <trkpt lat="45.82234" lon="3.18179">
        <ele>321.6</ele>
        <time>2014-11-01T08:02:54Z</time>
      </trkpt>
      <trkpt lat="45.82251" lon="3.18313">
        <ele>322</ele>
        <time>2014-11-01T08:04:09Z</time>
      </trkpt>
      <trkpt lat="45.82254" lon="3.18446">
        <ele>321.8</ele>
        <time>2014-11-01T08:05:17Z</time>
      </trkpt>
      <trkpt lat="45.82258" lon="3.18575">
        <ele>321</ele>
        <time>2014-11-01T08:06:24Z</time>
      </trkpt>
      <trkpt lat="45.82298" lon="3.18696">
        <ele>321</ele>
        <time>2014-11-01T08:07:34Z</time>
      </trkpt>
      <trkpt lat="45.82355" lon="3.18814">
        <ele>320.9</ele>
        <time>2014-11-01T08:08:46Z</time>
      </trkpt>
      <trkpt lat="45.8239" lon="3.18941">
        <ele>321</ele>
        <time>2014-11-01T08:09:59Z</time>
      </trkpt>
      <trkpt lat="45.82385" lon="3.19081">
        <ele>320.1</ele>
        <time>2014-11-01T08:11:10Z</time>
      </trkpt>
      <trkpt lat="45.82387" lon="3.19225">
        <ele>320.1</ele>
        <time>2014-11-01T08:12:24Z</time>
      </trkpt>
      <trkpt lat="45.82414" lon="3.19361">
        <ele>320</ele>
        <time>2014-11-01T08:13:59Z</time>
      </trkpt>
      <trkpt lat="45.82481" lon="3.1947">
        <ele>320</ele>
        <time>2014-11-01T08:15:27Z</time>
      </trkpt>
      <trkpt lat="45.82549" lon="3.19568">
        <ele>319.6</ele>
        <time>2014-11-01T08:16:37Z</time>
      </trkpt>
      <trkpt lat="45.82612" lon="3.19672">
        <ele>319.2</ele>
        <time>2014-11-01T08:17:47Z</time>
      </trkpt>
      <trkpt lat="45.82649" lon="3.19805">
        <ele>319.6</ele>
        <time>2014-11-01T08:18:59Z</time>
      </trkpt>
      <trkpt lat="45.82711" lon="3.19907">
        <ele>319.3</ele>
        <time>2014-11-01T08:20:14Z</time>
      </trkpt>
      <trkpt lat="45.82787" lon="3.19989">
        <ele>319</ele>
        <time>2014-11-01T08:21:26Z</time>
      </trkpt>
      <trkpt lat="45.82867" lon="3.20085">
        <ele>319.2</ele>
        <time>2014-11-01T08:22:47Z</time>
      </trkpt>
      <trkpt lat="45.82907" lon="3.20219">
        <ele>318.4</ele>
        <time>2014-11-01T08:24:19Z</time>
      </trkpt>
      <trkpt lat="45.82904" lon="3.20364">
        <ele>318.4</ele>
        <time>2014-11-01T08:25:40Z</time>
      </trkpt>
      <trkpt lat="45.82893" lon="3.20505">
        <ele>318.8</ele>
        <time>2014-11-01T08:27:12Z</time>
      </trkpt>
      <trkpt lat="45.82885" lon="3.20644">
        <ele>318.7</ele>
        <time>2014-11-01T08:28:21Z</time>
      </trkpt>
      <trkpt lat="45.8288" lon="3.20785">
        <ele>318.3</ele>
        <time>2014-11-01T08:29:32Z</time>
      </trkpt>
      <trkpt lat="45.82871" lon="3.20877">
        <ele>318.7</ele>
        <time>2014-11-01T08:30:23Z</time>
      </trkpt>
      <trkpt lat="45.82864" lon="3.20968">
        <ele>318</ele>
        <time>2014-11-01T08:31:16Z</time>
      </trkpt>
      <trkpt lat="45.82921" lon="3.2101">
        <ele>318</ele>
        <time>2014-11-01T08:32:27Z</time>
      </trkpt>
      <trkpt lat="45.82983" lon="3.2102">
        <ele>318</ele>
        <time>2014-11-01T08:33:12Z</time>
      </trkpt>
      <trkpt lat="45.83076" lon="3.21036">
        <ele>318</ele>
        <time>2014-11-01T08:34:19Z</time>
      </trkpt>
      <trkpt lat="45.83168" lon="3.21052">
        <ele>318</ele>
        <time>2014-11-01T08:35:28Z</time>
      </trkpt>
      <trkpt lat="45.83262" lon="3.21068">
        <ele>318</ele>
        <time>2014-11-01T08:36:35Z</time>
      </trkpt>
      <trkpt lat="45.83355" lon="3.21085">
        <ele>318</ele>
        <time>2014-11-01T08:37:45Z</time>
      </trkpt>
      <trkpt lat="45.83448" lon="3.21114">
        <ele>318</ele>
        <time>2014-11-01T08:38:55Z</time>
      </trkpt>
      <trkpt lat="45.83537" lon="3.21147">
        <ele>317.5</ele>
        <time>2014-11-01T08:40:06Z</time>
      </trkpt>
      <trkpt lat="45.83631" lon="3.21183">
        <ele>317</ele>
        <time>2014-11-01T08:41:15Z</time>
      </trkpt>
      <trkpt lat="45.83712" lon="3.21247">
        <ele>317</ele>
        <time>2014-11-01T08:42:23Z</time>
      </trkpt>
      <trkpt lat="45.83797" lon="3.21336">
        <ele>317</ele>
        <time>2014-11-01T08:44:01Z</time>
      </trkpt>
      <trkpt lat="45.83872" lon="3.21441">
        <ele>318</ele>
        <time>2014-11-01T08:45:18Z</time>
      </trkpt>
      <trkpt lat="45.83918" lon="3.21497">
        <ele>318</ele>
        <time>2014-11-01T08:46:10Z</time>
      </trkpt>
      <trkpt lat="45.83973" lon="3.21534">
        <ele>318</ele>
        <time>2014-11-01T08:47:33Z</time>
      </trkpt>
      <trkpt lat="45.84032" lon="3.21503">
        <ele>318</ele>
        <time>2014-11-01T08:48:23Z</time>
      </trkpt>
      <trkpt lat="45.84083" lon="3.21448">
        <ele>318</ele>
        <time>2014-11-01T08:49:23Z</time>
      </trkpt>
      <trkpt lat="45.8419" lon="3.21426">
        <ele>318</ele>
        <time>2014-11-01T08:51:11Z</time>
      </trkpt>
      <trkpt lat="45.84192" lon="3.2133">
        <ele>317</ele>
        <time>2014-11-01T08:52:06Z</time>
      </trkpt>
      <trkpt lat="45.84259" lon="3.21305">
        <ele>317.3</ele>
        <time>2014-11-01T08:52:58Z</time>
      </trkpt>
      <trkpt lat="45.84357" lon="3.21285">
        <ele>316.7</ele>
        <time>2014-11-01T08:54:34Z</time>
      </trkpt>
      <trkpt lat="45.84455" lon="3.21238">
        <ele>316.7</ele>
        <time>2014-11-01T08:55:55Z</time>
      </trkpt>
      <trkpt lat="45.84468" lon="3.21148">
        <ele>316</ele>
        <time>2014-11-01T08:56:31Z</time>
      </trkpt>
      <trkpt lat="45.84469" lon="3.21065">
        <ele>316</ele>
        <time>2014-11-01T08:57:01Z</time>
      </trkpt>
      <trkpt lat="45.84565" lon="3.20967">
        <ele>316</ele>
        <time>2014-11-01T08:58:14Z</time>
      </trkpt>
      <trkpt lat="45.84661" lon="3.20893">
        <ele>316.8</ele>
        <time>2014-11-01T08:59:11Z</time>
      </trkpt>
      <trkpt lat="45.84763" lon="3.20834">
        <ele>316</ele>
        <time>2014-11-01T09:00:08Z</time>
      </trkpt>
      <trkpt lat="45.84867" lon="3.20818">
        <ele>316</ele>
        <time>2014-11-01T09:01:04Z</time>
      </trkpt>
      <trkpt lat="45.84975" lon="3.20823">
        <ele>315.1</ele>
        <time>2014-11-01T09:02:23Z</time>
      </trkpt>
      <trkpt lat="45.85078" lon="3.2082">
        <ele>315.1</ele>
        <time>2014-11-01T09:03:13Z</time>
      </trkpt>
      <trkpt lat="45.8518" lon="3.20841">
        <ele>315.5</ele>
        <time>2014-11-01T09:04:08Z</time>
      </trkpt>
      <trkpt lat="45.85275" lon="3.20875">
        <ele>315.6</ele>
        <time>2014-11-01T09:05:02Z</time>
      </trkpt>
      <trkpt lat="45.85377" lon="3.20861">
        <ele>315</ele>
        <time>2014-11-01T09:05:56Z</time>
      </trkpt>
      <trkpt lat="45.85473" lon="3.20886">
        <ele>315</ele>
        <time>2014-11-01T09:06:51Z</time>
      </trkpt>
      <trkpt lat="45.85564" lon="3.20925">
        <ele>314</ele>
        <time>2014-11-01T09:07:41Z</time>
      </trkpt>
      <trkpt lat="45.85661" lon="3.2097">
        <ele>314.1</ele>
        <time>2014-11-01T09:08:36Z</time>
      </trkpt>
      <trkpt lat="45.85739" lon="3.21075">
        <ele>315</ele>
        <time>2014-11-01T09:09:34Z</time>
      </trkpt>
      <trkpt lat="45.85839" lon="3.2108">
        <ele>314.1</ele>
        <time>2014-11-01T09:10:27Z</time>
      </trkpt>
      <trkpt lat="45.85933" lon="3.21115">
        <ele>314.6</ele>
        <time>2014-11-01T09:11:25Z</time>
      </trkpt>
      <trkpt lat="45.85854" lon="3.21066">
        <ele>314.2</ele>
        <time>2014-11-01T09:13:36Z</time>
      </trkpt>
      <trkpt lat="45.85771" lon="3.21062">
        <ele>315</ele>
        <time>2014-11-01T09:14:42Z</time>
      </trkpt>
      <trkpt lat="45.85711" lon="3.20984">
        <ele>314.5</ele>
        <time>2014-11-01T09:15:43Z</time>
      </trkpt>
      <trkpt lat="45.85633" lon="3.2093">
        <ele>314.9</ele>
        <time>2014-11-01T09:16:57Z</time>
      </trkpt>
      <trkpt lat="45.85555" lon="3.20895">
        <ele>314.8</ele>
        <time>2014-11-01T09:18:06Z</time>
      </trkpt>
      <trkpt lat="45.85475" lon="3.2086">
        <ele>315</ele>
        <time>2014-11-01T09:19:17Z</time>
      </trkpt>
      <trkpt lat="45.85388" lon="3.20834">
        <ele>315</ele>
        <time>2014-11-01T09:20:40Z</time>
      </trkpt>
      <trkpt lat="45.8531" lon="3.20843">
        <ele>315.3</ele>
        <time>2014-11-01T09:21:41Z</time>
      </trkpt>
      <trkpt lat="45.85223" lon="3.20825">
        <ele>315.7</ele>
        <time>2014-11-01T09:23:16Z</time>
      </trkpt>
      <trkpt lat="45.85136" lon="3.20795">
        <ele>315</ele>
        <time>2014-11-01T09:24:32Z</time>
      </trkpt>
      <trkpt lat="45.85046" lon="3.20763">
        <ele>315.3</ele>
        <time>2014-11-01T09:25:44Z</time>
      </trkpt>
      <trkpt lat="45.84996" lon="3.2065">
        <ele>315.8</ele>
        <time>2014-11-01T09:26:54Z</time>
      </trkpt>
      <trkpt lat="45.84951" lon="3.20542">
        <ele>316</ele>
        <time>2014-11-01T09:28:02Z</time>
      </trkpt>
      <trkpt lat="45.84908" lon="3.20438">
        <ele>316</ele>
        <time>2014-11-01T09:29:07Z</time>
      </trkpt>
      <trkpt lat="45.84863" lon="3.20328">
        <ele>316</ele>
        <time>2014-11-01T09:30:18Z</time>
      </trkpt>
      <trkpt lat="45.84823" lon="3.20223">
        <ele>316</ele>
        <time>2014-11-01T09:31:26Z</time>
      </trkpt>
      <trkpt lat="45.84762" lon="3.20129">
        <ele>317</ele>
        <time>2014-11-01T09:32:35Z</time>
      </trkpt>
      <trkpt lat="45.8467" lon="3.2013">
        <ele>317.6</ele>
        <time>2014-11-01T09:33:46Z</time>
      </trkpt>
      <trkpt lat="45.84586" lon="3.20134">
        <ele>318</ele>
        <time>2014-11-01T09:34:51Z</time>
      </trkpt>
      <trkpt lat="45.8451" lon="3.2008">
        <ele>317</ele>
        <time>2014-11-01T09:35:56Z</time>
      </trkpt>
      <trkpt lat="45.8444" lon="3.20006">
        <ele>317.7</ele>
        <time>2014-11-01T09:37:16Z</time>
      </trkpt>
      <trkpt lat="45.8436" lon="3.19962">
        <ele>317</ele>
        <time>2014-11-01T09:38:17Z</time>
      </trkpt>
      <trkpt lat="45.84278" lon="3.19926">
        <ele>317</ele>
        <time>2014-11-01T09:39:26Z</time>
      </trkpt>
      <trkpt lat="45.84211" lon="3.19862">
        <ele>317</ele>
        <time>2014-11-01T09:40:29Z</time>
      </trkpt>
      <trkpt lat="45.84126" lon="3.19796">
        <ele>317</ele>
        <time>2014-11-01T09:41:40Z</time>
      </trkpt>
      <trkpt lat="45.84044" lon="3.19739">
        <ele>317.2</ele>
        <time>2014-11-01T09:42:48Z</time>
      </trkpt>
      <trkpt lat="45.8396" lon="3.19682">
        <ele>318</ele>
        <time>2014-11-01T09:43:59Z</time>
      </trkpt>
      <trkpt lat="45.83873" lon="3.19618">
        <ele>318</ele>
        <time>2014-11-01T09:45:11Z</time>
      </trkpt>
      <trkpt lat="45.83817" lon="3.19579">
        <ele>318</ele>
        <time>2014-11-01T09:45:58Z</time>
      </trkpt>
      <trkpt lat="45.8376" lon="3.1954">
        <ele>318</ele>
        <time>2014-11-01T09:46:45Z</time>
      </trkpt>
      <trkpt lat="45.8374" lon="3.19455">
        <ele>318</ele>
        <time>2014-11-01T09:47:46Z</time>
      </trkpt>
      <trkpt lat="45.83765" lon="3.19366">
        <ele>318</ele>
        <time>2014-11-01T09:48:36Z</time>
      </trkpt>
      <trkpt lat="45.83808" lon="3.19227">
        <ele>318</ele>
        <time>2014-11-01T09:50:28Z</time>
      </trkpt>
      <trkpt lat="45.83831" lon="3.19083">
        <ele>319</ele>
        <time>2014-11-01T09:52:01Z</time>
      </trkpt>
      <trkpt lat="45.83813" lon="3.18963">
        <ele>319.2</ele>
        <time>2014-11-01T09:53:10Z</time>
      </trkpt>
      <trkpt lat="45.83761" lon="3.18864">
        <ele>318.7</ele>
        <time>2014-11-01T09:54:17Z</time>
      </trkpt>
      <trkpt lat="45.83701" lon="3.18781">
        <ele>319.7</ele>
        <time>2014-11-01T09:55:21Z</time>
      </trkpt>
      <trkpt lat="45.83662" lon="3.18673">
        <ele>319.2</ele>
        <time>2014-11-01T09:56:23Z</time>
      </trkpt>
      <trkpt lat="45.83652" lon="3.18552">
        <ele>318.9</ele>
        <time>2014-11-01T09:57:42Z</time>
      </trkpt>
      <trkpt lat="45.83614" lon="3.18446">
        <ele>319.1</ele>
        <time>2014-11-01T09:58:47Z</time>
      </trkpt>
      <trkpt lat="45.83577" lon="3.18339">
        <ele>319.9</ele>
        <time>2014-11-01T09:59:53Z</time>
      </trkpt>
      <trkpt lat="45.83544" lon="3.18232">
        <ele>320</ele>
        <time>2014-11-01T10:00:56Z</time>
      </trkpt>
      <trkpt lat="45.83517" lon="3.18074">
        <ele>320</ele>
        <time>2014-11-01T10:02:35Z</time>
      </trkpt>
      <trkpt lat="45.83623" lon="3.18014">
        <ele>319.3</ele>
        <time>2014-11-01T10:04:07Z</time>
      </trkpt>
      <trkpt lat="45.83622" lon="3.17883">
        <ele>319.6</ele>
        <time>2014-11-01T10:05:24Z</time>
      </trkpt>
      <trkpt lat="45.83625" lon="3.17757">
        <ele>319.5</ele>
        <time>2014-11-01T10:06:37Z</time>
      </trkpt>
      <trkpt lat="45.83625" lon="3.17632">
        <ele>319.6</ele>
        <time>2014-11-01T10:07:47Z</time>
      </trkpt>
      <trkpt lat="45.83605" lon="3.17515">
        <ele>320</ele>
        <time>2014-11-01T10:09:10Z</time>
      </trkpt>
      <trkpt lat="45.83546" lon="3.1742">
        <ele>320</ele>
        <time>2014-11-01T10:10:35Z</time>
      </trkpt>
      <trkpt lat="45.83538" lon="3.17288">
        <ele>320</ele>
        <time>2014-11-01T10:11:48Z</time>
      </trkpt>
      <trkpt lat="45.83533" lon="3.17197">
        <ele>320.7</ele>
        <time>2014-11-01T10:12:37Z</time>
      </trkpt>
      <trkpt lat="45.83527" lon="3.17112">
        <ele>320.1</ele>
        <time>2014-11-01T10:13:22Z</time>
      </trkpt>
      <trkpt lat="45.83519" lon="3.17005">
        <ele>320.9</ele>
        <time>2014-11-01T10:14:17Z</time>
      </trkpt>
      <trkpt lat="45.83449" lon="3.16967">
        <ele>321</ele>
        <time>2014-11-01T10:15:28Z</time>
      </trkpt>
      <trkpt lat="45.83386" lon="3.16965">
        <ele>321</ele>
        <time>2014-11-01T10:16:12Z</time>
      </trkpt>
      <trkpt lat="45.83326" lon="3.16963">
        <ele>321.6</ele>
        <time>2014-11-01T10:16:55Z</time>
      </trkpt>
      <trkpt lat="45.83265" lon="3.16955">
        <ele>321</ele>
        <time>2014-11-01T10:17:40Z</time>
      </trkpt>
      <trkpt lat="45.83204" lon="3.16952">
        <ele>321</ele>
        <time>2014-11-01T10:18:22Z</time>
      </trkpt>
      <trkpt lat="45.83101" lon="3.16947">
        <ele>321</ele>
        <time>2014-11-01T10:19:40Z</time>
      </trkpt>
      <trkpt lat="45.83" lon="3.16945">
        <ele>321</ele>
        <time>2014-11-01T10:20:56Z</time>
      </trkpt>
      <trkpt lat="45.82891" lon="3.16952">
        <ele>321</ele>
        <time>2014-11-01T10:22:24Z</time>
      </trkpt>
      <trkpt lat="45.82823" lon="3.16955">
        <ele>321.2</ele>
        <time>2014-11-01T10:23:34Z</time>
      </trkpt>
      <trkpt lat="45.82799" lon="3.16864">
        <ele>322</ele>
        <time>2014-11-01T10:24:29Z</time>
      </trkpt>
      <trkpt lat="45.82792" lon="3.16719">
        <ele>323</ele>
        <time>2014-11-01T10:25:47Z</time>
      </trkpt>
      <trkpt lat="45.82802" lon="3.16579">
        <ele>323.9</ele>
        <time>2014-11-01T10:26:58Z</time>
      </trkpt>
      <trkpt lat="45.82811" lon="3.16434">
        <ele>323.8</ele>
        <time>2014-11-01T10:28:15Z</time>
      </trkpt>
      <trkpt lat="45.82821" lon="3.16296">
        <ele>323.1</ele>
        <time>2014-11-01T10:29:27Z</time>
      </trkpt>
      <trkpt lat="45.82827" lon="3.16149">
        <ele>324</ele>
        <time>2014-11-01T10:30:47Z</time>
      </trkpt>
      <trkpt lat="45.82841" lon="3.16005">
        <ele>324.7</ele>
        <time>2014-11-01T10:32:02Z</time>
      </trkpt>
      <trkpt lat="45.82866" lon="3.15867">
        <ele>325.3</ele>
        <time>2014-11-01T10:33:44Z</time>
      </trkpt>
      <trkpt lat="45.82858" lon="3.15722">
        <ele>327.5</ele>
        <time>2014-11-01T10:35:07Z</time>
      </trkpt>
      <trkpt lat="45.82838" lon="3.1564">
        <ele>324</ele>
        <time>2014-11-01T10:35:52Z</time>
      </trkpt>
      <trkpt lat="45.82821" lon="3.15543">
        <ele>324.5</ele>
        <time>2014-11-01T10:36:47Z</time>
      </trkpt>
      <trkpt lat="45.82816" lon="3.15456">
        <ele>324.5</ele>
        <time>2014-11-01T10:37:38Z</time>
      </trkpt>
      <trkpt lat="45.82799" lon="3.15367">
        <ele>325</ele>
        <time>2014-11-01T10:38:27Z</time>
      </trkpt>
      <trkpt lat="45.8278" lon="3.15282">
        <ele>325</ele>
        <time>2014-11-01T10:39:13Z</time>
      </trkpt>
      <trkpt lat="45.82757" lon="3.15197">
        <ele>325</ele>
        <time>2014-11-01T10:40:17Z</time>
      </trkpt>
      <trkpt lat="45.82728" lon="3.15114">
        <ele>325.2</ele>
        <time>2014-11-01T10:41:02Z</time>
      </trkpt>
      <trkpt lat="45.82701" lon="3.15041">
        <ele>325.1</ele>
        <time>2014-11-01T10:42:02Z</time>
      </trkpt>
      <trkpt lat="45.82672" lon="3.14964">
        <ele>326</ele>
        <time>2014-11-01T10:42:47Z</time>
      </trkpt>
      <trkpt lat="45.82652" lon="3.14878">
        <ele>326</ele>
        <time>2014-11-01T10:43:32Z</time>
      </trkpt>
      <trkpt lat="45.82634" lon="3.14791">
        <ele>326</ele>
        <time>2014-11-01T10:44:20Z</time>
      </trkpt>
      <trkpt lat="45.82616" lon="3.147">
        <ele>326</ele>
        <time>2014-11-01T10:45:07Z</time>
      </trkpt>
      <trkpt lat="45.826" lon="3.14614">
        <ele>326.4</ele>
        <time>2014-11-01T10:45:52Z</time>
      </trkpt>
      <trkpt lat="45.82561" lon="3.14534">
        <ele>327.6</ele>
        <time>2014-11-01T10:47:00Z</time>
      </trkpt>
      <trkpt lat="45.82499" lon="3.14487">
        <ele>329</ele>
        <time>2014-11-01T10:47:52Z</time>
      </trkpt>
      <trkpt lat="45.82479" lon="3.14391">
        <ele>330.5</ele>
        <time>2014-11-01T10:48:52Z</time>
      </trkpt>
      <trkpt lat="45.82428" lon="3.14286">
        <ele>332</ele>
        <time>2014-11-01T10:50:12Z</time>
      </trkpt>
      <trkpt lat="45.82339" lon="3.14252">
        <ele>329.2</ele>
        <time>2014-11-01T10:51:32Z</time>
      </trkpt>
      <trkpt lat="45.82261" lon="3.14198">
        <ele>329</ele>
        <time>2014-11-01T10:52:42Z</time>
      </trkpt>
      <trkpt lat="45.822" lon="3.14114">
        <ele>329.7</ele>
        <time>2014-11-01T10:53:57Z</time>
      </trkpt>
      <trkpt lat="45.82228" lon="3.13995">
        <ele>333.2</ele>
        <time>2014-11-01T10:55:02Z</time>
      </trkpt>
      <trkpt lat="45.82257" lon="3.13875">
        <ele>336.8</ele>
        <time>2014-11-01T10:56:07Z</time>
      </trkpt>
      <trkpt lat="45.82291" lon="3.13766">
        <ele>338.6</ele>
        <time>2014-11-01T10:57:17Z</time>
      </trkpt>
      <trkpt lat="45.82309" lon="3.13643">
        <ele>334.9</ele>
        <time>2014-11-01T10:58:25Z</time>
      </trkpt>
      <trkpt lat="45.82332" lon="3.13552">
        <ele>333.8</ele>
        <time>2014-11-01T10:59:12Z</time>
      </trkpt>
      <trkpt lat="45.8236" lon="3.13466">
        <ele>333</ele>
        <time>2014-11-01T10:59:58Z</time>
      </trkpt>
      <trkpt lat="45.82392" lon="3.13381">
        <ele>333</ele>
        <time>2014-11-01T11:00:47Z</time>
      </trkpt>
      <trkpt lat="45.82428" lon="3.13294">
        <ele>333.2</ele>
        <time>2014-11-01T11:01:37Z</time>
      </trkpt>
      <trkpt lat="45.82464" lon="3.13207">
        <ele>333.7</ele>
        <time>2014-11-01T11:02:27Z</time>
      </trkpt>
      <trkpt lat="45.82503" lon="3.13124">
        <ele>334.1</ele>
        <time>2014-11-01T11:03:17Z</time>
      </trkpt>
      <trkpt lat="45.8254" lon="3.13042">
        <ele>334.2</ele>
        <time>2014-11-01T11:04:07Z</time>
      </trkpt>
      <trkpt lat="45.82578" lon="3.12955">
        <ele>334.8</ele>
        <time>2014-11-01T11:04:57Z</time>
      </trkpt>
      <trkpt lat="45.82607" lon="3.1288">
        <ele>334.8</ele>
        <time>2014-11-01T11:05:59Z</time>
      </trkpt>
      <trkpt lat="45.82632" lon="3.12794">
        <ele>335.2</ele>
        <time>2014-11-01T11:06:47Z</time>
      </trkpt>
      <trkpt lat="45.8265" lon="3.1271">
        <ele>335.4</ele>
        <time>2014-11-01T11:07:33Z</time>
      </trkpt>
      <trkpt lat="45.82664" lon="3.12622">
        <ele>335.9</ele>
        <time>2014-11-01T11:08:17Z</time>
      </trkpt>
      <trkpt lat="45.82669" lon="3.1253">
        <ele>336.1</ele>
        <time>2014-11-01T11:09:03Z</time>
      </trkpt>
      <trkpt lat="45.82675" lon="3.12443">
        <ele>337.3</ele>
        <time>2014-11-01T11:09:49Z</time>
      </trkpt>
      <trkpt lat="45.82695" lon="3.12273">
        <ele>339</ele>
        <time>2014-11-01T11:11:15Z</time>
      </trkpt>
      <trkpt lat="45.82705" lon="3.12186">
        <ele>339</ele>
        <time>2014-11-01T11:11:57Z</time>
      </trkpt>
      <trkpt lat="45.82721" lon="3.12099">
        <ele>340</ele>
        <time>2014-11-01T11:12:42Z</time>
      </trkpt>
      <trkpt lat="45.82738" lon="3.12017">
        <ele>340.2</ele>
        <time>2014-11-01T11:13:27Z</time>
      </trkpt>
      <trkpt lat="45.82757" lon="3.11935">
        <ele>340</ele>
        <time>2014-11-01T11:14:12Z</time>
      </trkpt>
      <trkpt lat="45.82776" lon="3.1185">
        <ele>340.6</ele>
        <time>2014-11-01T11:14:57Z</time>
      </trkpt>
      <trkpt lat="45.82793" lon="3.11762">
        <ele>340.5</ele>
        <time>2014-11-01T11:15:42Z</time>
      </trkpt>
      <trkpt lat="45.82806" lon="3.11678">
        <ele>341</ele>
        <time>2014-11-01T11:16:28Z</time>
      </trkpt>
      <trkpt lat="45.82824" lon="3.11589">
        <ele>341.9</ele>
        <time>2014-11-01T11:17:17Z</time>
      </trkpt>
      <trkpt lat="45.82847" lon="3.11512">
        <ele>343</ele>
        <time>2014-11-01T11:17:57Z</time>
      </trkpt>
      <trkpt lat="45.8286" lon="3.1142">
        <ele>345.8</ele>
        <time>2014-11-01T11:18:47Z</time>
      </trkpt>
      <trkpt lat="45.82874" lon="3.11331">
        <ele>343.5</ele>
        <time>2014-11-01T11:19:37Z</time>
      </trkpt>
      <trkpt lat="45.82871" lon="3.11244">
        <ele>347.4</ele>
        <time>2014-11-01T11:20:25Z</time>
      </trkpt>
      <trkpt lat="45.82872" lon="3.11153">
        <ele>345</ele>
        <time>2014-11-01T11:21:15Z</time>
      </trkpt>
      <trkpt lat="45.82864" lon="3.11069">
        <ele>344</ele>
        <time>2014-11-01T11:21:57Z</time>
      </trkpt>
      <trkpt lat="45.82849" lon="3.10982">
        <ele>343.2</ele>
        <time>2014-11-01T11:22:42Z</time>
      </trkpt>
      <trkpt lat="45.82844" lon="3.10889">
        <ele>344</ele>
        <time>2014-11-01T11:23:27Z</time>
      </trkpt>
      <trkpt lat="45.82841" lon="3.10797">
        <ele>345</ele>
        <time>2014-11-01T11:24:12Z</time>
      </trkpt>
      <trkpt lat="45.8283" lon="3.1071">
        <ele>344.9</ele>
        <time>2014-11-01T11:24:57Z</time>
      </trkpt>
      <trkpt lat="45.82803" lon="3.10622">
        <ele>346</ele>
        <time>2014-11-01T11:25:57Z</time>
      </trkpt>
      <trkpt lat="45.82834" lon="3.10532">
        <ele>346.8</ele>
        <time>2014-11-01T11:26:57Z</time>
      </trkpt>
      <trkpt lat="45.82846" lon="3.10444">
        <ele>346</ele>
        <time>2014-11-01T11:27:47Z</time>
      </trkpt>
      <trkpt lat="45.82867" lon="3.10356">
        <ele>346</ele>
        <time>2014-11-01T11:28:37Z</time>
      </trkpt>
      <trkpt lat="45.82891" lon="3.10278">
        <ele>347</ele>
        <time>2014-11-01T11:29:22Z</time>
      </trkpt>
      <trkpt lat="45.82916" lon="3.10197">
        <ele>348</ele>
        <time>2014-11-01T11:30:07Z</time>
      </trkpt>
      <trkpt lat="45.82816" lon="3.10168">
        <ele>348.6</ele>
        <time>2014-11-01T11:31:27Z</time>
      </trkpt>
      <trkpt lat="45.82714" lon="3.10128">
        <ele>351.8</ele>
        <time>2014-11-01T11:32:57Z</time>
      </trkpt>
      <trkpt lat="45.82629" lon="3.10175">
        <ele>351</ele>
        <time>2014-11-01T11:34:12Z</time>
      </trkpt>
      <trkpt lat="45.82569" lon="3.10197">
        <ele>349.9</ele>
        <time>2014-11-01T11:35:08Z</time>
      </trkpt>
      <trkpt lat="45.82511" lon="3.10211">
        <ele>350.1</ele>
        <time>2014-11-01T11:35:52Z</time>
      </trkpt>
      <trkpt lat="45.82415" lon="3.10259">
        <ele>350.4</ele>
        <time>2014-11-01T11:37:07Z</time>
      </trkpt>
      <trkpt lat="45.82311" lon="3.10244">
        <ele>351.4</ele>
        <time>2014-11-01T11:38:22Z</time>
      </trkpt>
      <trkpt lat="45.82209" lon="3.10231">
        <ele>348.7</ele>
        <time>2014-11-01T11:39:34Z</time>
      </trkpt>
      <trkpt lat="45.82109" lon="3.10212">
        <ele>347.1</ele>
        <time>2014-11-01T11:40:45Z</time>
      </trkpt>
      <trkpt lat="45.82009" lon="3.10197">
        <ele>347.9</ele>
        <time>2014-11-01T11:41:59Z</time>
      </trkpt>
      <trkpt lat="45.8191" lon="3.1023">
        <ele>347.8</ele>
        <time>2014-11-01T11:43:12Z</time>
      </trkpt>
      <trkpt lat="45.8181" lon="3.10252">
        <ele>347.1</ele>
        <time>2014-11-01T11:44:29Z</time>
      </trkpt>
      <trkpt lat="45.81708" lon="3.10256">
        <ele>345.8</ele>
        <time>2014-11-01T11:45:47Z</time>
      </trkpt>
      <trkpt lat="45.81606" lon="3.10281">
        <ele>346.9</ele>
        <time>2014-11-01T11:47:07Z</time>
      </trkpt>
      <trkpt lat="45.81506" lon="3.10295">
        <ele>346.7</ele>
        <time>2014-11-01T11:48:25Z</time>
      </trkpt>
      <trkpt lat="45.81407" lon="3.10258">
        <ele>349</ele>
        <time>2014-11-01T11:49:49Z</time>
      </trkpt>
      <trkpt lat="45.81305" lon="3.1024">
        <ele>353.8</ele>
        <time>2014-11-01T11:51:12Z</time>
      </trkpt>
      <trkpt lat="45.81205" lon="3.10193">
        <ele>364.8</ele>
        <time>2014-11-01T11:52:42Z</time>
      </trkpt>
      <trkpt lat="45.81102" lon="3.10176">
        <ele>373.3</ele>
        <time>2014-11-01T11:54:22Z</time>
      </trkpt>
      <trkpt lat="45.81003" lon="3.10176">
        <ele>370.8</ele>
        <time>2014-11-01T11:55:37Z</time>
      </trkpt>
      <trkpt lat="45.809" lon="3.10193">
        <ele>359.4</ele>
        <time>2014-11-01T11:56:57Z</time>
      </trkpt>
      <trkpt lat="45.80799" lon="3.10206">
        <ele>356.7</ele>
        <time>2014-11-01T11:58:12Z</time>
      </trkpt>
      <trkpt lat="45.807" lon="3.10244">
        <ele>356.2</ele>
        <time>2014-11-01T11:59:35Z</time>
      </trkpt>
      <trkpt lat="45.80599" lon="3.10241">
        <ele>356.1</ele>
        <time>2014-11-01T12:00:53Z</time>
      </trkpt>
      <trkpt lat="45.80499" lon="3.10272">
        <ele>358.6</ele>
        <time>2014-11-01T12:02:12Z</time>
      </trkpt>
      <trkpt lat="45.80403" lon="3.10337">
        <ele>359.3</ele>
        <time>2014-11-01T12:03:28Z</time>
      </trkpt>
      <trkpt lat="45.80314" lon="3.10412">
        <ele>362.1</ele>
        <time>2014-11-01T12:04:47Z</time>
      </trkpt>
      <trkpt lat="45.80215" lon="3.10449">
        <ele>359.3</ele>
        <time>2014-11-01T12:06:07Z</time>
      </trkpt>
      <trkpt lat="45.8011" lon="3.10435">
        <ele>364</ele>
        <time>2014-11-01T12:07:27Z</time>
      </trkpt>
      <trkpt lat="45.80001" lon="3.10435">
        <ele>367</ele>
        <time>2014-11-01T12:08:49Z</time>
      </trkpt>
      <trkpt lat="45.79891" lon="3.10403">
        <ele>365.3</ele>
        <time>2014-11-01T12:10:20Z</time>
      </trkpt>
      <trkpt lat="45.79871" lon="3.10483">
        <ele>358.8</ele>
        <time>2014-11-01T12:11:14Z</time>
      </trkpt>
      <trkpt lat="45.79859" lon="3.10565">
        <ele>350.4</ele>
        <time>2014-11-01T12:12:07Z</time>
      </trkpt>
      <trkpt lat="45.79848" lon="3.10732">
        <ele>343.8</ele>
        <time>2014-11-01T12:13:50Z</time>
      </trkpt>
      <trkpt lat="45.79757" lon="3.10728">
        <ele>341.2</ele>
        <time>2014-11-01T12:14:57Z</time>
      </trkpt>
      <trkpt lat="45.79675" lon="3.10678">
        <ele>343.2</ele>
        <time>2014-11-01T12:16:12Z</time>
      </trkpt>
      <trkpt lat="45.79627" lon="3.10595">
        <ele>344.4</ele>
        <time>2014-11-01T12:17:12Z</time>
      </trkpt>
      <trkpt lat="45.79646" lon="3.10493">
        <ele>346.7</ele>
        <time>2014-11-01T12:18:12Z</time>
      </trkpt>
      <trkpt lat="45.79677" lon="3.1038">
        <ele>355.6</ele>
        <time>2014-11-01T12:19:37Z</time>
      </trkpt>
      <trkpt lat="45.79606" lon="3.10308">
        <ele>355.5</ele>
        <time>2014-11-01T12:20:47Z</time>
      </trkpt>
      <trkpt lat="45.79657" lon="3.10357">
        <ele>355.7</ele>
        <time>2014-11-01T12:21:37Z</time>
      </trkpt>
      <trkpt lat="45.797" lon="3.10423">
        <ele>354</ele>
        <time>2014-11-01T12:24:17Z</time>
      </trkpt>
    </trkseg>
  </trk>
</gpx>